AAL2610 KDCA-KPWM
Flight info
| Callsign | AAL2610 |
|---|---|
| Flight time | 1h 3m |
| Altitude | 37000 |
| Route | SOOKI6 SWANN BROSS Q419 RBV Q22 LLUND BDR SCOGS3 |
| Aircraft | B738/M-SDE2E3FGHIRWXY/LB1 |
Departure
| Time | 2026-05-07 21:30 |
|---|---|
| Airport | Ronald Reagan Washington National Airport (KDCA) |
Arrival
| Time | 2026-05-07 22:33 |
|---|---|
| Airport | Portland International Jetport (KPWM) |
| Time | Latitude | Longitude | Altitude | Speed | Heading |
|---|---|---|---|---|---|
| 2026-05-07 21:12 | 38.85440 | -77.04234 | 27 ft | 0 kts | 163° |
| 2026-05-07 21:21 | 38.85448 | -77.04237 | 27 ft | 2 kts | 163° |
| 2026-05-07 21:22 | 38.85462 | -77.04242 | 27 ft | 2 kts | 163° |
| 2026-05-07 21:22 | 38.85474 | -77.04247 | 27 ft | 0 kts | 163° |
| 2026-05-07 21:22 | 38.85484 | -77.04253 | 27 ft | 2 kts | 132° |
| 2026-05-07 21:22 | 38.85491 | -77.04269 | 27 ft | 2 kts | 93° |
| 2026-05-07 21:23 | 38.85490 | -77.04279 | 28 ft | 1 kts | 70° |
| 2026-05-07 21:23 | 38.85488 | -77.04287 | 28 ft | 0 kts | 71° |
| 2026-05-07 21:23 | 38.85488 | -77.04286 | 28 ft | 0 kts | 71° |
| 2026-05-07 21:25 | 38.85490 | -77.04279 | 27 ft | 3 kts | 71° |
| 2026-05-07 21:26 | 38.85500 | -77.04237 | 27 ft | 6 kts | 72° |
| 2026-05-07 21:26 | 38.85519 | -77.04160 | 25 ft | 10 kts | 73° |
| 2026-05-07 21:26 | 38.85542 | -77.04067 | 22 ft | 11 kts | 63° |
| 2026-05-07 21:26 | 38.85619 | -77.04040 | 21 ft | 12 kts | 354° |
| 2026-05-07 21:27 | 38.85711 | -77.04050 | 19 ft | 13 kts | 355° |
| 2026-05-07 21:27 | 38.85805 | -77.04057 | 19 ft | 13 kts | 356° |
| 2026-05-07 21:27 | 38.85891 | -77.04064 | 18 ft | 8 kts | 360° |
| 2026-05-07 21:27 | 38.85932 | -77.04012 | 17 ft | 9 kts | 71° |
| 2026-05-07 21:28 | 38.85984 | -77.03960 | 15 ft | 10 kts | 14° |
| 2026-05-07 21:28 | 38.86055 | -77.03935 | 15 ft | 10 kts | 17° |
| 2026-05-07 21:28 | 38.86081 | -77.03884 | 14 ft | 5 kts | 127° |
| 2026-05-07 21:28 | 38.86052 | -77.03869 | 14 ft | 0 kts | 173° |
| 2026-05-07 21:29 | 38.86044 | -77.03867 | 14 ft | 7 kts | 173° |
| 2026-05-07 21:29 | 38.85761 | -77.03838 | 17 ft | 78 kts | 176° |
| 2026-05-07 21:29 | 38.84991 | -77.03761 | 19 ft | 142 kts | 175° |
| 2026-05-07 21:29 | 38.83856 | -77.03643 | 338 ft | 169 kts | 176° |
| 2026-05-07 21:30 | 38.82686 | -77.03522 | 1070 ft | 174 kts | 173° |
| 2026-05-07 21:30 | 38.81485 | -77.03268 | 1709 ft | 182 kts | 168° |
| 2026-05-07 21:30 | 38.80197 | -77.02933 | 2152 ft | 195 kts | 168° |
| 2026-05-07 21:30 | 38.78840 | -77.02614 | 2595 ft | 208 kts | 169° |
| 2026-05-07 21:31 | 38.77380 | -77.02203 | 3003 ft | 222 kts | 160° |
| 2026-05-07 21:31 | 38.76067 | -77.01122 | 3376 ft | 234 kts | 129° |
| 2026-05-07 21:31 | 38.75313 | -76.99202 | 3703 ft | 250 kts | 98° |
| 2026-05-07 21:31 | 38.75204 | -76.96963 | 4370 ft | 256 kts | 87° |
| 2026-05-07 21:32 | 38.75258 | -76.94651 | 4833 ft | 271 kts | 81° |
| 2026-05-07 21:32 | 38.75728 | -76.92326 | 5494 ft | 273 kts | 60° |
| 2026-05-07 21:32 | 38.76894 | -76.90431 | 6211 ft | 272 kts | 36° |
| 2026-05-07 21:32 | 38.78469 | -76.89127 | 6928 ft | 274 kts | 26° |
| 2026-05-07 21:33 | 38.80133 | -76.87887 | 7539 ft | 282 kts | 26° |
| 2026-05-07 21:33 | 38.81829 | -76.86588 | 8205 ft | 289 kts | 25° |
| 2026-05-07 21:33 | 38.83567 | -76.85237 | 8847 ft | 296 kts | 25° |
| 2026-05-07 21:33 | 38.85344 | -76.83844 | 9499 ft | 302 kts | 24° |
| 2026-05-07 21:34 | 38.87083 | -76.82277 | 10070 ft | 315 kts | 32° |
| 2026-05-07 21:34 | 38.88788 | -76.80417 | 10498 ft | 330 kts | 35° |
| 2026-05-07 21:34 | 38.90547 | -76.78384 | 10873 ft | 347 kts | 37° |
| 2026-05-07 21:34 | 38.92349 | -76.76266 | 11218 ft | 363 kts | 37° |
| 2026-05-07 21:35 | 38.94246 | -76.74031 | 11541 ft | 380 kts | 37° |
| 2026-05-07 21:35 | 38.96236 | -76.71698 | 11847 ft | 397 kts | 38° |
| 2026-05-07 21:35 | 38.98336 | -76.69250 | 12139 ft | 414 kts | 38° |
| 2026-05-07 21:35 | 39.00520 | -76.66711 | 12510 ft | 428 kts | 38° |
| 2026-05-07 21:36 | 39.02723 | -76.64095 | 13056 ft | 437 kts | 39° |
| 2026-05-07 21:36 | 39.04895 | -76.61383 | 13606 ft | 445 kts | 41° |
| 2026-05-07 21:36 | 39.07096 | -76.58551 | 14253 ft | 451 kts | 41° |
| 2026-05-07 21:36 | 39.09238 | -76.55545 | 14963 ft | 458 kts | 49° |
| 2026-05-07 21:37 | 39.10950 | -76.52055 | 15619 ft | 468 kts | 62° |
| 2026-05-07 21:37 | 39.12154 | -76.48140 | 16275 ft | 474 kts | 72° |
| 2026-05-07 21:37 | 39.12962 | -76.44035 | 16930 ft | 478 kts | 78° |
| 2026-05-07 21:37 | 39.13551 | -76.39845 | 17553 ft | 483 kts | 82° |
| 2026-05-07 21:38 | 39.14026 | -76.35560 | 18145 ft | 489 kts | 83° |
| 2026-05-07 21:38 | 39.14450 | -76.31219 | 18746 ft | 493 kts | 85° |
| 2026-05-07 21:38 | 39.14867 | -76.26814 | 19284 ft | 500 kts | 85° |
| 2026-05-07 21:38 | 39.15299 | -76.22385 | 19839 ft | 505 kts | 85° |
| 2026-05-07 21:39 | 39.15759 | -76.17891 | 20446 ft | 509 kts | 84° |
| 2026-05-07 21:39 | 39.16246 | -76.13353 | 20949 ft | 515 kts | 84° |
| 2026-05-07 21:39 | 39.16750 | -76.08808 | 21504 ft | 519 kts | 83° |
| 2026-05-07 21:39 | 39.17272 | -76.04191 | 22012 ft | 524 kts | 83° |
| 2026-05-07 21:40 | 39.17806 | -75.99549 | 22497 ft | 530 kts | 82° |
| 2026-05-07 21:40 | 39.18570 | -75.94897 | 22933 ft | 536 kts | 75° |
| 2026-05-07 21:40 | 39.19798 | -75.90343 | 23448 ft | 540 kts | 66° |
| 2026-05-07 21:40 | 39.21507 | -75.85993 | 23897 ft | 543 kts | 57° |
| 2026-05-07 21:41 | 39.23611 | -75.82030 | 24153 ft | 548 kts | 48° |
| 2026-05-07 21:41 | 39.26191 | -75.78371 | 24653 ft | 545 kts | 39° |
| 2026-05-07 21:41 | 39.29031 | -75.75182 | 25133 ft | 543 kts | 32° |
| 2026-05-07 21:41 | 39.32009 | -75.72251 | 25577 ft | 544 kts | 29° |
| 2026-05-07 21:42 | 39.35067 | -75.69387 | 26158 ft | 544 kts | 28° |
| 2026-05-07 21:42 | 39.38103 | -75.66534 | 26661 ft | 546 kts | 29° |
| 2026-05-07 21:42 | 39.41167 | -75.63564 | 27196 ft | 548 kts | 30° |
| 2026-05-07 21:42 | 39.44163 | -75.60541 | 27793 ft | 548 kts | 31° |
| 2026-05-07 21:43 | 39.47113 | -75.57455 | 28372 ft | 548 kts | 32° |
| 2026-05-07 21:43 | 39.50046 | -75.54301 | 28858 ft | 550 kts | 32° |
| 2026-05-07 21:43 | 39.52944 | -75.51131 | 29318 ft | 551 kts | 33° |
| 2026-05-07 21:43 | 39.55874 | -75.47887 | 29747 ft | 553 kts | 33° |
| 2026-05-07 21:44 | 39.58802 | -75.44630 | 30170 ft | 554 kts | 33° |
| 2026-05-07 21:44 | 39.61704 | -75.41393 | 30629 ft | 554 kts | 33° |
| 2026-05-07 21:44 | 39.64599 | -75.38158 | 31118 ft | 553 kts | 33° |
| 2026-05-07 21:44 | 39.67488 | -75.34928 | 31582 ft | 552 kts | 33° |
| 2026-05-07 21:45 | 39.70441 | -75.31631 | 31973 ft | 553 kts | 34° |
| 2026-05-07 21:45 | 39.73329 | -75.28406 | 32413 ft | 551 kts | 34° |
| 2026-05-07 21:45 | 39.76219 | -75.25179 | 32852 ft | 549 kts | 34° |
| 2026-05-07 21:45 | 39.79078 | -75.21854 | 33175 ft | 553 kts | 37° |
| 2026-05-07 21:46 | 39.81794 | -75.18346 | 33481 ft | 557 kts | 40° |
| 2026-05-07 21:46 | 39.84435 | -75.14631 | 33889 ft | 557 kts | 43° |
| 2026-05-07 21:46 | 39.86975 | -75.10861 | 34332 ft | 556 kts | 44° |
| 2026-05-07 21:46 | 39.89481 | -75.07045 | 34670 ft | 556 kts | 45° |
| 2026-05-07 21:47 | 39.91973 | -75.03211 | 34973 ft | 557 kts | 45° |
| 2026-05-07 21:47 | 39.94495 | -74.99330 | 35322 ft | 556 kts | 45° |
| 2026-05-07 21:47 | 39.96937 | -74.95473 | 35630 ft | 557 kts | 47° |
| 2026-05-07 21:47 | 39.99265 | -74.91428 | 36022 ft | 557 kts | 51° |
| 2026-05-07 21:48 | 40.01455 | -74.87302 | 36394 ft | 556 kts | 53° |
| 2026-05-07 21:48 | 40.03574 | -74.83113 | 36679 ft | 557 kts | 54° |
| 2026-05-07 21:48 | 40.05669 | -74.78874 | 36851 ft | 559 kts | 54° |
| 2026-05-07 21:48 | 40.07761 | -74.74612 | 36856 ft | 561 kts | 54° |
| 2026-05-07 21:49 | 40.11971 | -74.66059 | 36841 ft | 557 kts | 54° |
| 2026-05-07 21:49 | 40.16186 | -74.57639 | 36848 ft | 558 kts | 53° |
| 2026-05-07 21:50 | 40.20832 | -74.49563 | 36840 ft | 552 kts | 42° |
| 2026-05-07 21:50 | 40.26327 | -74.42628 | 36848 ft | 546 kts | 34° |
| 2026-05-07 21:51 | 40.29215 | -74.39452 | 36691 ft | 545 kts | 32° |
| 2026-05-07 21:51 | 40.32144 | -74.36365 | 36842 ft | 546 kts | 31° |
| 2026-05-07 21:51 | 40.38122 | -74.30185 | 36834 ft | 543 kts | 31° |
| 2026-05-07 21:52 | 40.44012 | -74.24032 | 36838 ft | 545 kts | 32° |
| 2026-05-07 21:52 | 40.49866 | -74.17806 | 36844 ft | 546 kts | 33° |
| 2026-05-07 21:53 | 40.55726 | -74.11505 | 36836 ft | 546 kts | 33° |
| 2026-05-07 21:53 | 40.61575 | -74.05172 | 36842 ft | 546 kts | 33° |
| 2026-05-07 21:54 | 40.67414 | -73.98833 | 36842 ft | 545 kts | 33° |
| 2026-05-07 21:54 | 40.73239 | -73.92498 | 36837 ft | 543 kts | 33° |
| 2026-05-07 21:55 | 40.79036 | -73.86185 | 36839 ft | 546 kts | 33° |
| 2026-05-07 21:55 | 40.84636 | -73.79397 | 36836 ft | 549 kts | 41° |
| 2026-05-07 21:56 | 40.89472 | -73.71481 | 36838 ft | 557 kts | 52° |
| 2026-05-07 21:56 | 40.93648 | -73.62869 | 36835 ft | 559 kts | 57° |
| 2026-05-07 21:57 | 40.97564 | -73.54044 | 36832 ft | 558 kts | 58° |
| 2026-05-07 21:57 | 41.01466 | -73.45142 | 36826 ft | 560 kts | 58° |
| 2026-05-07 21:58 | 41.05365 | -73.36344 | 36822 ft | 559 kts | 58° |
| 2026-05-07 21:58 | 41.09351 | -73.27436 | 36827 ft | 561 kts | 58° |
| 2026-05-07 21:59 | 41.13322 | -73.18602 | 36825 ft | 558 kts | 58° |
| 2026-05-07 21:59 | 41.17302 | -73.09765 | 36833 ft | 561 kts | 58° |
| 2026-05-07 22:00 | 41.21384 | -73.00981 | 36830 ft | 560 kts | 56° |
| 2026-05-07 22:00 | 41.25507 | -72.92289 | 36835 ft | 562 kts | 57° |
| 2026-05-07 22:01 | 41.29663 | -72.83502 | 36831 ft | 561 kts | 57° |
| 2026-05-07 22:01 | 41.33772 | -72.74747 | 36834 ft | 561 kts | 57° |
| 2026-05-07 22:02 | 41.37872 | -72.65955 | 36833 ft | 563 kts | 57° |
| 2026-05-07 22:02 | 41.41989 | -72.57075 | 36842 ft | 562 kts | 57° |
| 2026-05-07 22:03 | 41.46070 | -72.48243 | 36836 ft | 563 kts | 57° |
| 2026-05-07 22:03 | 41.50161 | -72.39362 | 36829 ft | 562 kts | 57° |
| 2026-05-07 22:04 | 41.54227 | -72.30518 | 36819 ft | 563 kts | 58° |
| 2026-05-07 22:04 | 41.58326 | -72.21579 | 36824 ft | 564 kts | 58° |
| 2026-05-07 22:05 | 41.62386 | -72.12691 | 36822 ft | 563 kts | 58° |
| 2026-05-07 22:05 | 41.66454 | -72.03766 | 36812 ft | 564 kts | 58° |
| 2026-05-07 22:06 | 41.70497 | -71.94875 | 36837 ft | 564 kts | 58° |
| 2026-05-07 22:06 | 41.74560 | -71.85905 | 36828 ft | 564 kts | 58° |
| 2026-05-07 22:07 | 41.78610 | -71.76941 | 36807 ft | 565 kts | 58° |
| 2026-05-07 22:07 | 41.82646 | -71.67979 | 36813 ft | 565 kts | 58° |
| 2026-05-07 22:08 | 41.86523 | -71.58854 | 36827 ft | 565 kts | 63° |
| 2026-05-07 22:08 | 41.89972 | -71.49426 | 36810 ft | 566 kts | 65° |
| 2026-05-07 22:09 | 41.93280 | -71.39861 | 36739 ft | 566 kts | 66° |
| 2026-05-07 22:09 | 41.94924 | -71.35089 | 36385 ft | 563 kts | 66° |
| 2026-05-07 22:09 | 41.96572 | -71.30338 | 35831 ft | 561 kts | 67° |
| 2026-05-07 22:10 | 41.98229 | -71.25596 | 35256 ft | 562 kts | 66° |
| 2026-05-07 22:10 | 41.99888 | -71.20879 | 34550 ft | 565 kts | 66° |
| 2026-05-07 22:10 | 42.01567 | -71.16129 | 33751 ft | 571 kts | 66° |
| 2026-05-07 22:10 | 42.03271 | -71.11319 | 32855 ft | 577 kts | 66° |
| 2026-05-07 22:11 | 42.05076 | -71.06432 | 32153 ft | 578 kts | 63° |
| 2026-05-07 22:11 | 42.07104 | -71.01820 | 31585 ft | 575 kts | 55° |
| 2026-05-07 22:11 | 42.09591 | -70.97671 | 31004 ft | 569 kts | 43° |
| 2026-05-07 22:11 | 42.12490 | -70.94215 | 30427 ft | 559 kts | 31° |
| 2026-05-07 22:12 | 42.15706 | -70.91345 | 29833 ft | 549 kts | 24° |
| 2026-05-07 22:12 | 42.19024 | -70.88905 | 29223 ft | 541 kts | 19° |
| 2026-05-07 22:12 | 42.22384 | -70.86855 | 28651 ft | 532 kts | 14° |
| 2026-05-07 22:12 | 42.25818 | -70.85075 | 28059 ft | 525 kts | 11° |
| 2026-05-07 22:13 | 42.29244 | -70.83486 | 27477 ft | 519 kts | 9° |
| 2026-05-07 22:13 | 42.32685 | -70.81977 | 26890 ft | 514 kts | 9° |
| 2026-05-07 22:13 | 42.36024 | -70.80535 | 26327 ft | 510 kts | 9° |
| 2026-05-07 22:13 | 42.39388 | -70.79071 | 25735 ft | 507 kts | 9° |
| 2026-05-07 22:14 | 42.42744 | -70.77580 | 25156 ft | 503 kts | 9° |
| 2026-05-07 22:14 | 42.46044 | -70.76045 | 24590 ft | 501 kts | 11° |
| 2026-05-07 22:14 | 42.49287 | -70.74391 | 24003 ft | 498 kts | 13° |
| 2026-05-07 22:14 | 42.52485 | -70.72659 | 23426 ft | 495 kts | 14° |
| 2026-05-07 22:15 | 42.55620 | -70.70908 | 22851 ft | 491 kts | 15° |
| 2026-05-07 22:15 | 42.58736 | -70.69148 | 22282 ft | 487 kts | 15° |
| 2026-05-07 22:15 | 42.61865 | -70.67378 | 21704 ft | 482 kts | 15° |
| 2026-05-07 22:15 | 42.64945 | -70.65641 | 21152 ft | 478 kts | 15° |
| 2026-05-07 22:16 | 42.67994 | -70.63927 | 20564 ft | 474 kts | 15° |
| 2026-05-07 22:16 | 42.70988 | -70.62179 | 20061 ft | 471 kts | 17° |
| 2026-05-07 22:16 | 42.73968 | -70.60341 | 19464 ft | 468 kts | 18° |
| 2026-05-07 22:16 | 42.76881 | -70.58490 | 18892 ft | 465 kts | 18° |
| 2026-05-07 22:17 | 42.79798 | -70.56614 | 18310 ft | 461 kts | 19° |
| 2026-05-07 22:17 | 42.82667 | -70.54758 | 17736 ft | 457 kts | 19° |
| 2026-05-07 22:17 | 42.85508 | -70.52921 | 17313 ft | 449 kts | 19° |
| 2026-05-07 22:17 | 42.88318 | -70.51109 | 16817 ft | 442 kts | 19° |
| 2026-05-07 22:18 | 42.91066 | -70.49347 | 16295 ft | 437 kts | 19° |
| 2026-05-07 22:18 | 42.96475 | -70.45899 | 15226 ft | 428 kts | 18° |
| 2026-05-07 22:18 | 42.99173 | -70.44186 | 14672 ft | 422 kts | 18° |
| 2026-05-07 22:19 | 43.01794 | -70.42502 | 14143 ft | 419 kts | 20° |
| 2026-05-07 22:19 | 43.04343 | -70.40624 | 13592 ft | 416 kts | 24° |
| 2026-05-07 22:19 | 43.06820 | -70.38560 | 13093 ft | 413 kts | 26° |
| 2026-05-07 22:19 | 43.09185 | -70.36470 | 12562 ft | 408 kts | 27° |
| 2026-05-07 22:20 | 43.11556 | -70.34335 | 12031 ft | 402 kts | 28° |
| 2026-05-07 22:20 | 43.13879 | -70.32243 | 11513 ft | 396 kts | 29° |
| 2026-05-07 22:20 | 43.16140 | -70.30224 | 11079 ft | 388 kts | 29° |
| 2026-05-07 22:20 | 43.18363 | -70.28243 | 11021 ft | 368 kts | 28° |
| 2026-05-07 22:21 | 43.20467 | -70.26370 | 10866 ft | 354 kts | 28° |
| 2026-05-07 22:21 | 43.22471 | -70.24594 | 10752 ft | 340 kts | 28° |
| 2026-05-07 22:21 | 43.24423 | -70.22868 | 10627 ft | 327 kts | 28° |
| 2026-05-07 22:21 | 43.26313 | -70.21210 | 10507 ft | 315 kts | 27° |
| 2026-05-07 22:22 | 43.28119 | -70.19651 | 10392 ft | 303 kts | 27° |
| 2026-05-07 22:22 | 43.29898 | -70.18130 | 10080 ft | 299 kts | 27° |
| 2026-05-07 22:22 | 43.31661 | -70.16624 | 9692 ft | 298 kts | 27° |
| 2026-05-07 22:22 | 43.33402 | -70.15176 | 9402 ft | 293 kts | 25° |
| 2026-05-07 22:23 | 43.35164 | -70.13786 | 9027 ft | 291 kts | 25° |
| 2026-05-07 22:23 | 43.36930 | -70.12421 | 8641 ft | 290 kts | 25° |
| 2026-05-07 22:23 | 43.38672 | -70.11069 | 8338 ft | 286 kts | 25° |
| 2026-05-07 22:23 | 43.40467 | -70.10090 | 7962 ft | 278 kts | 6° |
| 2026-05-07 22:24 | 43.42380 | -70.09829 | 7589 ft | 272 kts | 358° |
| 2026-05-07 22:24 | 43.44264 | -70.09779 | 7226 ft | 270 kts | 357° |
| 2026-05-07 22:24 | 43.46120 | -70.09769 | 6897 ft | 267 kts | 356° |
| 2026-05-07 22:24 | 43.47956 | -70.09772 | 6539 ft | 265 kts | 356° |
| 2026-05-07 22:25 | 43.49803 | -70.09785 | 6179 ft | 264 kts | 356° |
| 2026-05-07 22:25 | 43.51611 | -70.10029 | 5780 ft | 260 kts | 342° |
| 2026-05-07 22:25 | 43.53288 | -70.10861 | 5451 ft | 256 kts | 335° |
| 2026-05-07 22:25 | 43.54927 | -70.11854 | 5072 ft | 255 kts | 333° |
| 2026-05-07 22:26 | 43.56524 | -70.12843 | 4722 ft | 253 kts | 334° |
| 2026-05-07 22:26 | 43.58123 | -70.13837 | 4332 ft | 252 kts | 333° |
| 2026-05-07 22:26 | 43.59721 | -70.14837 | 4001 ft | 250 kts | 333° |
| 2026-05-07 22:26 | 43.61281 | -70.15812 | 3706 ft | 245 kts | 333° |
| 2026-05-07 22:27 | 43.62817 | -70.16773 | 3392 ft | 242 kts | 334° |
| 2026-05-07 22:27 | 43.64334 | -70.17722 | 3064 ft | 238 kts | 333° |
| 2026-05-07 22:27 | 43.65832 | -70.18662 | 2731 ft | 235 kts | 332° |
| 2026-05-07 22:27 | 43.67107 | -70.19974 | 2398 ft | 225 kts | 308° |
| 2026-05-07 22:28 | 43.67664 | -70.21850 | 2077 ft | 207 kts | 276° |
| 2026-05-07 22:28 | 43.67312 | -70.23727 | 2002 ft | 208 kts | 242° |
| 2026-05-07 22:28 | 43.66200 | -70.25047 | 2020 ft | 217 kts | 213° |
| 2026-05-07 22:28 | 43.64793 | -70.25823 | 2009 ft | 223 kts | 195° |
| 2026-05-07 22:29 | 43.63237 | -70.25646 | 2016 ft | 230 kts | 162° |
| 2026-05-07 22:29 | 43.61950 | -70.24347 | 2015 ft | 232 kts | 128° |
| 2026-05-07 22:29 | 43.61384 | -70.22458 | 2006 ft | 202 kts | 91° |
| 2026-05-07 22:29 | 43.61438 | -70.20600 | 2034 ft | 188 kts | 81° |
| 2026-05-07 22:30 | 43.61802 | -70.18956 | 2004 ft | 172 kts | 48° |
| 2026-05-07 22:30 | 43.62707 | -70.18084 | 2018 ft | 157 kts | 5° |
| 2026-05-07 22:30 | 43.63734 | -70.18301 | 2028 ft | 147 kts | 330° |
| 2026-05-07 22:30 | 43.64591 | -70.19076 | 1842 ft | 151 kts | 319° |
| 2026-05-07 22:31 | 43.65310 | -70.20048 | 1624 ft | 143 kts | 309° |
| 2026-05-07 22:31 | 43.65850 | -70.21183 | 1351 ft | 143 kts | 294° |
| 2026-05-07 22:31 | 43.66012 | -70.22527 | 1154 ft | 142 kts | 268° |
| 2026-05-07 22:31 | 43.65638 | -70.23728 | 928 ft | 143 kts | 236° |
| 2026-05-07 22:32 | 43.64888 | -70.24626 | 708 ft | 142 kts | 225° |
| 2026-05-07 22:32 | 43.64225 | -70.25555 | 632 ft | 133 kts | 247° |
| 2026-05-07 22:32 | 43.64091 | -70.26781 | 517 ft | 134 kts | 279° |
| 2026-05-07 22:32 | 43.64285 | -70.28028 | 349 ft | 130 kts | 281° |
| 2026-05-07 22:33 | 43.64359 | -70.29251 | 140 ft | 131 kts | 276° |
| 2026-05-07 22:33 | 43.64444 | -70.30478 | 47 ft | 112 kts | 275° |
| 2026-05-07 22:33 | 43.64485 | -70.31107 | 63 ft | 28 kts | 275° |
| 2026-05-07 22:33 | 43.64503 | -70.31389 | 67 ft | 27 kts | 276° |
| 2026-05-07 22:34 | 43.64520 | -70.31623 | 68 ft | 22 kts | 275° |
| 2026-05-07 22:34 | 43.64534 | -70.31833 | 68 ft | 21 kts | 276° |
| 2026-05-07 22:34 | 43.64547 | -70.32027 | 67 ft | 15 kts | 275° |
| 2026-05-07 22:34 | 43.64576 | -70.32085 | 67 ft | 5 kts | 344° |
| 2026-05-07 22:35 | 43.64607 | -70.32086 | 67 ft | 4 kts | 2° |
| 2026-05-07 22:35 | 43.64647 | -70.32074 | 67 ft | 6 kts | 38° |
| 2026-05-07 22:35 | 43.64656 | -70.31993 | 67 ft | 11 kts | 96° |
| 2026-05-07 22:35 | 43.64648 | -70.31895 | 69 ft | 9 kts | 96° |
| 2026-05-07 22:36 | 43.64642 | -70.31800 | 70 ft | 14 kts | 95° |
| 2026-05-07 22:36 | 43.64631 | -70.31638 | 70 ft | 17 kts | 95° |
| 2026-05-07 22:36 | 43.64621 | -70.31473 | 70 ft | 17 kts | 95° |
| 2026-05-07 22:36 | 43.64620 | -70.31338 | 67 ft | 9 kts | 51° |
| 2026-05-07 22:37 | 43.64681 | -70.31347 | 68 ft | 8 kts | 336° |
| 2026-05-07 22:37 | 43.64716 | -70.31332 | 68 ft | 4 kts | 57° |
| 2026-05-07 22:37 | 43.64726 | -70.31305 | 68 ft | 2 kts | 65° |
| 2026-05-07 22:37 | 43.64731 | -70.31293 | 68 ft | 0 kts | 64° |